sensor_id;sensor_type;location;lat;lon;timestamp;pressure;altitude;pressure_sealevel;temperature;humidity
71917;BME280;59793;46.506;6.674;2023-08-31T00:01:38;96770.34;;;17.68;61.72
71917;BME280;59793;46.506;6.674;2023-08-31T00:04:04;96805.56;;;17.94;61.47
71917;BME280;59793;46.506;6.674;2023-08-31T00:06:30;96753.00;;;17.50;60.43
71917;BME280;59793;46.506;6.674;2023-08-31T00:08:56;96806.78;;;17.86;60.56
71917;BME280;59793;46.506;6.674;2023-08-31T00:11:21;96831.00;;;18.06;61.66
71917;BME280;59793;46.506;6.674;2023-08-31T00:13:46;96822.13;;;17.67;62.12
71917;BME280;59793;46.506;6.674;2023-08-31T00:16:12;96822.84;;;17.79;61.36
71917;BME280;59793;46.506;6.674;2023-08-31T00:18:37;96826.53;;;17.92;61.44
71917;BME280;59793;46.506;6.674;2023-08-31T00:21:04;96789.78;;;17.65;62.58
71917;BME280;59793;46.506;6.674;2023-08-31T00:23:29;96815.66;;;17.68;62.76
71917;BME280;59793;46.506;6.674;2023-08-31T00:25:54;96782.16;;;17.15;63.92
71917;BME280;59793;46.506;6.674;2023-08-31T00:28:22;96813.59;;;17.35;62.93
71917;BME280;59793;46.506;6.674;2023-08-31T00:30:48;96818.88;;;17.46;60.55
71917;BME280;59793;46.506;6.674;2023-08-31T00:33:14;96835.56;;;17.53;61.01
71917;BME280;59793;46.506;6.674;2023-08-31T00:35:39;96782.50;;;17.21;61.50
71917;BME280;59793;46.506;6.674;2023-08-31T00:38:10;96760.19;;;17.01;61.72
71917;BME280;59793;46.506;6.674;2023-08-31T00:40:42;96821.84;;;17.55;61.49
71917;BME280;59793;46.506;6.674;2023-08-31T00:43:09;96801.31;;;17.52;60.99
71917;BME280;59793;46.506;6.674;2023-08-31T00:45:37;96761.50;;;17.30;60.96
71917;BME280;59793;46.506;6.674;2023-08-31T00:48:04;96747.13;;;17.20;61.54
71917;BME280;59793;46.506;6.674;2023-08-31T00:50:30;96831.59;;;17.79;61.15
71917;BME280;59793;46.506;6.674;2023-08-31T00:52:56;96822.84;;;17.79;61.15
71917;BME280;59793;46.506;6.674;2023-08-31T00:55:22;96802.31;;;17.68;60.65
71917;BME280;59793;46.506;6.674;2023-08-31T00:57:47;96778.00;;;17.63;60.36
71917;BME280;59793;46.506;6.674;2023-08-31T01:00:13;96753.88;;;17.36;60.72
71917;BME280;59793;46.506;6.674;2023-08-31T01:02:53;96784.50;;;17.62;61.29
71917;BME280;59793;46.506;6.674;2023-08-31T01:08:21;96826.59;;;17.85;62.00
71917;BME280;59793;46.506;6.674;2023-08-31T01:11:07;96829.31;;;17.78;62.15
71917;BME280;59793;46.506;6.674;2023-08-31T01:13:34;96826.41;;;17.54;63.42
71917;BME280;59793;46.506;6.674;2023-08-31T01:16:00;96826.13;;;17.38;63.88
71917;BME280;59793;46.506;6.674;2023-08-31T01:18:28;96829.94;;;17.37;63.78
71917;BME280;59793;46.506;6.674;2023-08-31T01:21:23;96834.53;;;17.36;63.79
71917;BME280;59793;46.506;6.674;2023-08-31T01:23:53;96830.69;;;17.41;62.62
71917;BME280;59793;46.506;6.674;2023-08-31T01:26:19;96812.13;;;17.27;62.43
71917;BME280;59793;46.506;6.674;2023-08-31T01:28:45;96834.44;;;17.51;61.03
71917;BME280;59793;46.506;6.674;2023-08-31T01:31:11;96797.25;;;17.33;61.20
71917;BME280;59793;46.506;6.674;2023-08-31T01:33:36;96826.81;;;17.53;60.72
71917;BME280;59793;46.506;6.674;2023-08-31T01:36:05;96812.00;;;17.48;60.69
71917;BME280;59793;46.506;6.674;2023-08-31T01:38:34;96789.28;;;17.33;61.14
71917;BME280;59793;46.506;6.674;2023-08-31T01:41:05;96769.56;;;17.19;60.25
71917;BME280;59793;46.506;6.674;2023-08-31T01:43:32;96836.22;;;17.68;59.19
71917;BME280;59793;46.506;6.674;2023-08-31T01:46:01;96795.94;;;17.55;60.61
71917;BME280;59793;46.506;6.674;2023-08-31T01:48:26;96826.25;;;17.79;60.89
71917;BME280;59793;46.506;6.674;2023-08-31T01:50:52;96799.16;;;17.36;63.23
71917;BME280;59793;46.506;6.674;2023-08-31T01:53:17;96829.16;;;17.43;62.46
71917;BME280;59793;46.506;6.674;2023-08-31T01:55:42;96830.34;;;17.35;62.66
71917;BME280;59793;46.506;6.674;2023-08-31T01:58:08;96821.25;;;17.29;62.86
71917;BME280;59793;46.506;6.674;2023-08-31T02:00:33;96770.88;;;16.97;61.90
71917;BME280;59793;46.506;6.674;2023-08-31T02:03:01;96810.66;;;17.18;62.03
71917;BME280;59793;46.506;6.674;2023-08-31T02:05:26;96811.75;;;17.28;61.98
71917;BME280;59793;46.506;6.674;2023-08-31T02:07:51;96788.22;;;17.19;62.22
71917;BME280;59793;46.506;6.674;2023-08-31T02:10:16;96817.47;;;17.23;64.14
71917;BME280;59793;46.506;6.674;2023-08-31T02:12:42;96783.00;;;17.02;63.74
71917;BME280;59793;46.506;6.674;2023-08-31T02:15:08;96794.41;;;16.99;63.86
71917;BME280;59793;46.506;6.674;2023-08-31T02:17:34;96777.44;;;16.64;65.99
71917;BME280;59793;46.506;6.674;2023-08-31T02:19:59;96821.91;;;16.60;67.07
71917;BME280;59793;46.506;6.674;2023-08-31T02:22:25;96776.88;;;15.99;68.32
71917;BME280;59793;46.506;6.674;2023-08-31T02:24:50;96836.47;;;16.16;69.26
71917;BME280;59793;46.506;6.674;2023-08-31T02:27:17;96842.94;;;16.18;68.99
71917;BME280;59793;46.506;6.674;2023-08-31T02:29:42;96798.91;;;15.89;69.03
71917;BME280;59793;46.506;6.674;2023-08-31T02:32:10;96849.28;;;16.57;67.99
71917;BME280;59793;46.506;6.674;2023-08-31T02:34:44;96793.88;;;16.37;67.59
71917;BME280;59793;46.506;6.674;2023-08-31T02:37:09;96824.94;;;16.72;66.38
71917;BME280;59793;46.506;6.674;2023-08-31T02:39:35;96820.41;;;16.62;65.77
71917;BME280;59793;46.506;6.674;2023-08-31T02:42:00;96840.84;;;16.87;65.92
71917;BME280;59793;46.506;6.674;2023-08-31T02:44:26;96803.66;;;16.72;65.06
71917;BME280;59793;46.506;6.674;2023-08-31T02:46:51;96806.63;;;16.85;64.99
71917;BME280;59793;46.506;6.674;2023-08-31T02:49:16;96814.28;;;16.80;64.33
71917;BME280;59793;46.506;6.674;2023-08-31T02:51:42;96844.66;;;16.93;64.59
71917;BME280;59793;46.506;6.674;2023-08-31T02:54:07;96862.06;;;17.08;65.91
71917;BME280;59793;46.506;6.674;2023-08-31T02:56:32;96826.34;;;17.02;66.25
71917;BME280;59793;46.506;6.674;2023-08-31T02:58:58;96827.44;;;17.12;66.86
71917;BME280;59793;46.506;6.674;2023-08-31T03:01:23;96816.44;;;17.03;66.60
71917;BME280;59793;46.506;6.674;2023-08-31T03:03:49;96849.03;;;17.28;65.77
71917;BME280;59793;46.506;6.674;2023-08-31T03:06:14;96764.50;;;16.69;65.46
71917;BME280;59793;46.506;6.674;2023-08-31T03:08:40;96860.41;;;17.36;65.55
71917;BME280;59793;46.506;6.674;2023-08-31T03:11:06;96846.38;;;17.25;65.19
71917;BME280;59793;46.506;6.674;2023-08-31T03:13:32;96854.66;;;17.41;64.78
71917;BME280;59793;46.506;6.674;2023-08-31T03:15:59;96830.03;;;17.23;65.73
71917;BME280;59793;46.506;6.674;2023-08-31T03:18:25;96822.47;;;17.17;65.55
71917;BME280;59793;46.506;6.674;2023-08-31T03:20:50;96775.06;;;16.91;65.33
71917;BME280;59793;46.506;6.674;2023-08-31T03:23:16;96758.78;;;16.78;66.67
71917;BME280;59793;46.506;6.674;2023-08-31T03:25:42;96837.59;;;17.28;68.20
71917;BME280;59793;46.506;6.674;2023-08-31T03:28:08;96860.72;;;17.41;67.62
71917;BME280;59793;46.506;6.674;2023-08-31T03:30:35;96808.81;;;17.08;67.36
71917;BME280;59793;46.506;6.674;2023-08-31T03:33:00;96850.53;;;17.33;67.36
71917;BME280;59793;46.506;6.674;2023-08-31T03:35:25;96850.06;;;17.45;66.54
71917;BME280;59793;46.506;6.674;2023-08-31T03:37:54;96851.22;;;17.40;66.09
71917;BME280;59793;46.506;6.674;2023-08-31T03:40:20;96856.56;;;17.37;65.60
71917;BME280;59793;46.506;6.674;2023-08-31T03:42:46;96799.00;;;16.94;65.96
71917;BME280;59793;46.506;6.674;2023-08-31T03:45:12;96854.38;;;17.25;66.38
71917;BME280;59793;46.506;6.674;2023-08-31T03:47:37;96830.13;;;17.05;66.30
71917;BME280;59793;46.506;6.674;2023-08-31T03:50:03;96810.41;;;16.91;66.73
71917;BME280;59793;46.506;6.674;2023-08-31T03:52:29;96860.84;;;17.24;67.31
71917;BME280;59793;46.506;6.674;2023-08-31T03:54:55;96874.09;;;17.34;67.73
71917;BME280;59793;46.506;6.674;2023-08-31T03:57:20;96828.59;;;17.11;68.25
71917;BME280;59793;46.506;6.674;2023-08-31T03:59:45;96839.22;;;17.11;68.25
71917;BME280;59793;46.506;6.674;2023-08-31T04:02:11;96805.16;;;16.77;68.26
71917;BME280;59793;46.506;6.674;2023-08-31T04:04:36;96835.84;;;16.96;68.12
71917;BME280;59793;46.506;6.674;2023-08-31T04:07:02;96862.75;;;17.19;67.90
71917;BME280;59793;46.506;6.674;2023-08-31T04:09:27;96815.03;;;16.80;67.25
71917;BME280;59793;46.506;6.674;2023-08-31T04:11:52;96839.31;;;16.96;67.43
71917;BME280;59793;46.506;6.674;2023-08-31T04:14:18;96815.44;;;16.79;67.91
71917;BME280;59793;46.506;6.674;2023-08-31T04:16:44;96873.78;;;17.22;68.01
71917;BME280;59793;46.506;6.674;2023-08-31T04:19:09;96874.16;;;17.20;68.71
71917;BME280;59793;46.506;6.674;2023-08-31T04:21:35;96882.50;;;17.26;69.07
71917;BME280;59793;46.506;6.674;2023-08-31T04:24:01;96872.22;;;17.28;69.79
71917;BME280;59793;46.506;6.674;2023-08-31T04:26:26;96798.72;;;16.75;69.70
71917;BME280;59793;46.506;6.674;2023-08-31T04:28:53;96881.34;;;17.27;69.70
71917;BME280;59793;46.506;6.674;2023-08-31T04:31:20;96867.31;;;17.19;69.28
71917;BME280;59793;46.506;6.674;2023-08-31T04:33:46;96868.13;;;17.12;68.41
71917;BME280;59793;46.506;6.674;2023-08-31T04:36:14;96887.81;;;17.33;68.77
71917;BME280;59793;46.506;6.674;2023-08-31T04:38:39;96881.00;;;17.25;68.30
71917;BME280;59793;46.506;6.674;2023-08-31T04:41:05;96833.25;;;16.85;68.31
71917;BME280;59793;46.506;6.674;2023-08-31T04:43:30;96884.84;;;17.09;69.32
71917;BME280;59793;46.506;6.674;2023-08-31T04:45:56;96894.44;;;17.00;69.07
71917;BME280;59793;46.506;6.674;2023-08-31T04:48:22;96887.56;;;17.02;68.51
71917;BME280;59793;46.506;6.674;2023-08-31T04:50:47;96897.81;;;17.07;68.83
71917;BME280;59793;46.506;6.674;2023-08-31T04:53:14;96844.69;;;16.71;68.10
71917;BME280;59793;46.506;6.674;2023-08-31T04:55:41;96831.44;;;16.61;67.85
71917;BME280;59793;46.506;6.674;2023-08-31T04:58:06;96865.97;;;16.86;67.09
71917;BME280;59793;46.506;6.674;2023-08-31T05:00:31;96878.84;;;16.91;66.99
71917;BME280;59793;46.506;6.674;2023-08-31T05:02:57;96913.72;;;17.22;67.70
71917;BME280;59793;46.506;6.674;2023-08-31T05:05:22;96901.59;;;17.06;67.15
71917;BME280;59793;46.506;6.674;2023-08-31T05:07:48;96934.25;;;17.25;66.86
71917;BME280;59793;46.506;6.674;2023-08-31T05:10:13;96939.59;;;17.25;67.09
71917;BME280;59793;46.506;6.674;2023-08-31T05:12:38;96936.50;;;17.30;66.58
71917;BME280;59793;46.506;6.674;2023-08-31T05:15:04;96905.00;;;17.17;66.42
71917;BME280;59793;46.506;6.674;2023-08-31T05:17:30;96886.44;;;16.96;65.42
71917;BME280;59793;46.506;6.674;2023-08-31T05:19:56;96919.09;;;17.11;65.88
71917;BME280;59793;46.506;6.674;2023-08-31T05:22:21;96946.38;;;17.36;66.37
71917;BME280;59793;46.506;6.674;2023-08-31T05:24:48;96922.06;;;17.24;65.24
71917;BME280;59793;46.506;6.674;2023-08-31T05:27:14;96949.44;;;17.28;65.64
71917;BME280;59793;46.506;6.674;2023-08-31T05:29:39;96952.53;;;17.19;66.61
71917;BME280;59793;46.506;6.674;2023-08-31T05:32:05;96942.66;;;17.12;66.68
71917;BME280;59793;46.506;6.674;2023-08-31T05:34:30;96919.88;;;17.01;66.09
71917;BME280;59793;46.506;6.674;2023-08-31T05:36:58;96896.75;;;16.87;65.85
71917;BME280;59793;46.506;6.674;2023-08-31T05:39:23;96860.66;;;16.71;65.61
71917;BME280;59793;46.506;6.674;2023-08-31T05:41:49;96877.75;;;16.78;65.58
71917;BME280;59793;46.506;6.674;2023-08-31T05:44:14;96963.09;;;17.37;65.67
71917;BME280;59793;46.506;6.674;2023-08-31T05:46:39;96963.53;;;17.32;66.30
71917;BME280;59793;46.506;6.674;2023-08-31T05:49:06;96963.09;;;17.37;65.89
71917;BME280;59793;46.506;6.674;2023-08-31T05:51:32;96883.78;;;16.89;65.72
71917;BME280;59793;46.506;6.674;2023-08-31T05:53:57;96960.78;;;17.50;66.06
71917;BME280;59793;46.506;6.674;2023-08-31T05:56:23;96973.31;;;17.56;65.89
71917;BME280;59793;46.506;6.674;2023-08-31T05:58:48;96971.41;;;17.57;66.37
71917;BME280;59793;46.506;6.674;2023-08-31T06:01:15;96956.25;;;17.39;67.15
71917;BME280;59793;46.506;6.674;2023-08-31T06:03:41;96970.25;;;17.54;67.56
71917;BME280;59793;46.506;6.674;2023-08-31T06:06:06;96943.31;;;17.38;67.75
71917;BME280;59793;46.506;6.674;2023-08-31T06:08:32;96973.31;;;17.56;66.22
71917;BME280;59793;46.506;6.674;2023-08-31T06:10:57;96900.09;;;17.05;66.25
71917;BME280;59793;46.506;6.674;2023-08-31T06:13:22;96957.72;;;17.48;66.11
71917;BME280;59793;46.506;6.674;2023-08-31T06:15:48;96973.63;;;17.65;66.49
71917;BME280;59793;46.506;6.674;2023-08-31T06:18:13;96954.66;;;17.56;65.32
71917;BME280;59793;46.506;6.674;2023-08-31T06:20:39;96932.69;;;17.31;64.08
71917;BME280;59793;46.506;6.674;2023-08-31T06:23:04;96958.47;;;17.48;64.69
71917;BME280;59793;46.506;6.674;2023-08-31T06:25:31;96957.00;;;17.40;64.35
71917;BME280;59793;46.506;6.674;2023-08-31T06:27:57;96974.47;;;17.48;65.11
71917;BME280;59793;46.506;6.674;2023-08-31T06:30:22;96917.16;;;17.18;64.39
71917;BME280;59793;46.506;6.674;2023-08-31T06:32:50;96968.38;;;17.51;64.10
71917;BME280;59793;46.506;6.674;2023-08-31T06:35:17;96924.00;;;17.16;64.85
71917;BME280;59793;46.506;6.674;2023-08-31T06:37:42;97000.31;;;17.55;64.23
71917;BME280;59793;46.506;6.674;2023-08-31T06:40:09;96944.97;;;17.10;64.45
71917;BME280;59793;46.506;6.674;2023-08-31T06:42:35;97007.97;;;17.49;64.84
71917;BME280;59793;46.506;6.674;2023-08-31T06:45:01;97006.47;;;17.41;65.19
71917;BME280;59793;46.506;6.674;2023-08-31T06:47:27;96982.94;;;17.25;65.02
71917;BME280;59793;46.506;6.674;2023-08-31T06:49:52;96963.97;;;17.09;65.59
71917;BME280;59793;46.506;6.674;2023-08-31T06:52:19;97012.50;;;17.52;65.62
71917;BME280;59793;46.506;6.674;2023-08-31T06:54:44;96988.59;;;17.31;66.34
71917;BME280;59793;46.506;6.674;2023-08-31T06:57:10;96963.94;;;17.16;66.89
71917;BME280;59793;46.506;6.674;2023-08-31T06:59:35;97013.66;;;17.48;66.77
71917;BME280;59793;46.506;6.674;2023-08-31T07:02:00;97012.53;;;17.45;67.03
71917;BME280;59793;46.506;6.674;2023-08-31T07:04:28;96995.81;;;17.34;66.52
71917;BME280;59793;46.506;6.674;2023-08-31T07:06:54;96989.00;;;17.33;64.90
71917;BME280;59793;46.506;6.674;2023-08-31T07:09:19;96999.59;;;17.47;65.04
71917;BME280;59793;46.506;6.674;2023-08-31T07:11:44;97008.28;;;17.58;65.34
71917;BME280;59793;46.506;6.674;2023-08-31T07:14:10;97014.00;;;17.60;65.36
71917;BME280;59793;46.506;6.674;2023-08-31T07:16:35;96942.63;;;17.19;65.72
71917;BME280;59793;46.506;6.674;2023-08-31T07:19:02;97010.88;;;17.73;65.33
71917;BME280;59793;46.506;6.674;2023-08-31T07:21:28;96990.38;;;17.62;65.63
71917;BME280;59793;46.506;6.674;2023-08-31T07:23:53;96976.66;;;17.71;65.12
71917;BME280;59793;46.506;6.674;2023-08-31T07:26:19;96996.38;;;17.88;64.81
71917;BME280;59793;46.506;6.674;2023-08-31T07:28:45;96985.69;;;17.95;64.07
71917;BME280;59793;46.506;6.674;2023-08-31T07:31:10;96987.13;;;18.07;63.61
71917;BME280;59793;46.506;6.674;2023-08-31T07:33:35;96961.78;;;17.70;63.20
71917;BME280;59793;46.506;6.674;2023-08-31T07:36:02;97031.97;;;18.19;63.18
71917;BME280;59793;46.506;6.674;2023-08-31T07:38:30;97014.59;;;18.00;63.35
71917;BME280;59793;46.506;6.674;2023-08-31T07:40:56;97007.03;;;17.84;63.26
71917;BME280;59793;46.506;6.674;2023-08-31T07:43:21;97040.41;;;18.14;63.39
71917;BME280;59793;46.506;6.674;2023-08-31T07:45:47;97053.38;;;18.08;64.25
71917;BME280;59793;46.506;6.674;2023-08-31T07:48:13;97040.47;;;18.03;63.93
71917;BME280;59793;46.506;6.674;2023-08-31T07:50:42;97062.50;;;18.14;64.09
71917;BME280;59793;46.506;6.674;2023-08-31T07:53:07;97050.69;;;18.12;63.08
71917;BME280;59793;46.506;6.674;2023-08-31T07:55:33;97050.69;;;18.15;63.19
71917;BME280;59793;46.506;6.674;2023-08-31T07:57:58;97042.72;;;18.08;62.77
71917;BME280;59793;46.506;6.674;2023-08-31T08:00:23;97029.72;;;18.18;62.97
71917;BME280;59793;46.506;6.674;2023-08-31T08:02:49;97063.16;;;18.33;62.58
71917;BME280;59793;46.506;6.674;2023-08-31T08:05:14;97074.53;;;18.37;62.21
71917;BME280;59793;46.506;6.674;2023-08-31T08:07:39;97000.13;;;17.98;62.30
71917;BME280;59793;46.506;6.674;2023-08-31T08:10:08;97073.00;;;18.43;62.21
71917;BME280;59793;46.506;6.674;2023-08-31T08:12:43;97077.16;;;18.44;60.96
71917;BME280;59793;46.506;6.674;2023-08-31T08:15:09;97083.31;;;18.41;61.20
71917;BME280;59793;46.506;6.674;2023-08-31T08:17:35;97085.97;;;18.41;61.02
71917;BME280;59793;46.506;6.674;2023-08-31T08:20:01;97088.91;;;18.54;59.91
71917;BME280;59793;46.506;6.674;2023-08-31T08:22:26;97078.91;;;18.69;59.86
71917;BME280;59793;46.506;6.674;2023-08-31T08:24:51;97029.91;;;18.48;59.15
71917;BME280;59793;46.506;6.674;2023-08-31T08:27:17;97080.34;;;18.84;58.86
71917;BME280;59793;46.506;6.674;2023-08-31T08:29:46;97046.88;;;18.69;58.64
71917;BME280;59793;46.506;6.674;2023-08-31T08:32:12;97073.56;;;18.72;58.77
71917;BME280;59793;46.506;6.674;2023-08-31T08:34:37;96990.03;;;18.30;59.33
71917;BME280;59793;46.506;6.674;2023-08-31T08:37:02;97030.72;;;18.86;58.82
71917;BME280;59793;46.506;6.674;2023-08-31T08:39:31;97002.59;;;18.78;58.35
71917;BME280;59793;46.506;6.674;2023-08-31T08:41:58;97075.56;;;19.47;58.64
71917;BME280;59793;46.506;6.674;2023-08-31T08:44:25;97051.94;;;19.42;58.17
71917;BME280;59793;46.506;6.674;2023-08-31T08:46:51;97077.16;;;19.41;57.30
71917;BME280;59793;46.506;6.674;2023-08-31T08:49:17;97054.13;;;19.17;58.57
71917;BME280;59793;46.506;6.674;2023-08-31T08:51:43;97028.84;;;19.25;57.68
71917;BME280;59793;46.506;6.674;2023-08-31T08:54:08;97068.47;;;19.68;57.00
71917;BME280;59793;46.506;6.674;2023-08-31T08:56:34;97035.75;;;19.56;55.81
71917;BME280;59793;46.506;6.674;2023-08-31T08:58:59;97088.75;;;19.96;55.56
71917;BME280;59793;46.506;6.674;2023-08-31T09:01:25;97083.28;;;19.76;56.19
71917;BME280;59793;46.506;6.674;2023-08-31T09:03:51;97093.06;;;19.90;56.81
71917;BME280;59793;46.506;6.674;2023-08-31T09:06:16;97093.63;;;19.74;55.75
71917;BME280;59793;46.506;6.674;2023-08-31T09:08:42;97078.25;;;19.47;57.03
71917;BME280;59793;46.506;6.674;2023-08-31T09:11:08;97104.22;;;19.81;56.07
71917;BME280;59793;46.506;6.674;2023-08-31T09:13:33;97102.47;;;19.67;55.50
71917;BME280;59793;46.506;6.674;2023-08-31T09:15:59;97100.50;;;19.71;55.82
71917;BME280;59793;46.506;6.674;2023-08-31T09:18:26;97097.53;;;19.66;54.63
71917;BME280;59793;46.506;6.674;2023-08-31T09:20:53;97100.16;;;19.69;54.79
71917;BME280;59793;46.506;6.674;2023-08-31T09:23:19;97065.09;;;19.64;54.77
71917;BME280;59793;46.506;6.674;2023-08-31T09:25:49;97093.63;;;19.74;54.72
71917;BME280;59793;46.506;6.674;2023-08-31T09:28:16;97096.28;;;19.74;55.57
71917;BME280;59793;46.506;6.674;2023-08-31T09:30:42;97107.53;;;19.58;55.31
71917;BME280;59793;46.506;6.674;2023-08-31T09:33:15;97093.53;;;19.43;54.73
71917;BME280;59793;46.506;6.674;2023-08-31T09:35:50;97108.56;;;19.68;54.81
71917;BME280;59793;46.506;6.674;2023-08-31T09:38:16;97117.78;;;19.59;54.28
71917;BME280;59793;46.506;6.674;2023-08-31T09:40:42;97109.22;;;19.79;54.87
71917;BME280;59793;46.506;6.674;2023-08-31T09:43:07;97114.13;;;19.84;55.21
71917;BME280;59793;46.506;6.674;2023-08-31T09:45:34;97095.97;;;19.68;53.31
71917;BME280;59793;46.506;6.674;2023-08-31T09:48:01;97109.41;;;19.95;52.58
71917;BME280;59793;46.506;6.674;2023-08-31T09:50:30;97114.03;;;20.22;51.10
71917;BME280;59793;46.506;6.674;2023-08-31T09:53:00;97099.41;;;20.30;51.65
71917;BME280;59793;46.506;6.674;2023-08-31T09:55:28;97035.88;;;20.11;50.79
71917;BME280;59793;46.506;6.674;2023-08-31T09:57:56;97095.22;;;20.29;49.31
71917;BME280;59793;46.506;6.674;2023-08-31T10:00:22;97080.41;;;20.21;49.12
71917;BME280;59793;46.506;6.674;2023-08-31T10:02:48;97056.84;;;20.12;49.41
71917;BME280;59793;46.506;6.674;2023-08-31T10:05:14;97099.91;;;20.48;50.15
71917;BME280;59793;46.506;6.674;2023-08-31T10:07:40;97053.50;;;20.32;50.25
71917;BME280;59793;46.506;6.674;2023-08-31T10:10:07;97096.94;;;20.70;48.56
71917;BME280;59793;46.506;6.674;2023-08-31T10:12:33;97085.72;;;21.02;49.45
71917;BME280;59793;46.506;6.674;2023-08-31T10:15:00;97090.00;;;21.19;47.24
71917;BME280;59793;46.506;6.674;2023-08-31T10:17:26;97008.00;;;20.59;47.74
71917;BME280;59793;46.506;6.674;2023-08-31T10:19:52;97067.63;;;20.86;48.11
71917;BME280;59793;46.506;6.674;2023-08-31T10:22:18;97094.22;;;21.20;49.86
71917;BME280;59793;46.506;6.674;2023-08-31T10:25:00;97096.72;;;21.08;46.50
71917;BME280;59793;46.506;6.674;2023-08-31T10:27:27;97082.75;;;20.96;48.64
71917;BME280;59793;46.506;6.674;2023-08-31T10:29:52;97085.69;;;21.25;48.28
71917;BME280;59793;46.506;6.674;2023-08-31T10:32:18;97073.44;;;21.05;49.38
71917;BME280;59793;46.506;6.674;2023-08-31T10:34:44;97106.06;;;20.99;50.55
71917;BME280;59793;46.506;6.674;2023-08-31T10:37:29;97083.56;;;20.70;50.39
71917;BME280;59793;46.506;6.674;2023-08-31T10:40:06;97103.06;;;20.94;52.27
71917;BME280;59793;46.506;6.674;2023-08-31T10:42:32;97109.19;;;21.41;51.25
71917;BME280;59793;46.506;6.674;2023-08-31T10:45:05;97103.34;;;21.23;50.43
71917;BME280;59793;46.506;6.674;2023-08-31T10:47:38;97087.41;;;21.16;51.77
71917;BME280;59793;46.506;6.674;2023-08-31T10:50:22;97087.63;;;21.01;52.43
71917;BME280;59793;46.506;6.674;2023-08-31T10:52:48;97086.78;;;21.52;52.28
71917;BME280;59793;46.506;6.674;2023-08-31T10:55:14;97069.59;;;21.89;51.81
71917;BME280;59793;46.506;6.674;2023-08-31T10:57:40;97058.88;;;21.69;50.36
71917;BME280;59793;46.506;6.674;2023-08-31T11:00:07;97087.22;;;21.70;49.02
71917;BME280;59793;46.506;6.674;2023-08-31T11:02:43;97095.78;;;21.18;48.30
71917;BME280;59793;46.506;6.674;2023-08-31T11:05:16;97082.59;;;21.51;48.02
71917;BME280;59793;46.506;6.674;2023-08-31T11:07:49;97085.88;;;21.58;47.84
71917;BME280;59793;46.506;6.674;2023-08-31T11:10:22;97083.44;;;21.67;48.23
71917;BME280;59793;46.506;6.674;2023-08-31T11:12:54;97078.72;;;21.52;48.91
71917;BME280;59793;46.506;6.674;2023-08-31T11:15:22;97045.88;;;21.04;49.36
71917;BME280;59793;46.506;6.674;2023-08-31T11:17:51;97082.78;;;21.40;48.07
71917;BME280;59793;46.506;6.674;2023-08-31T11:20:18;97080.25;;;21.53;47.72
71917;BME280;59793;46.506;6.674;2023-08-31T11:22:46;97082.31;;;21.45;48.20
71917;BME280;59793;46.506;6.674;2023-08-31T11:25:13;97065.59;;;21.37;48.70
71917;BME280;59793;46.506;6.674;2023-08-31T11:27:39;97064.66;;;21.47;48.61
71917;BME280;59793;46.506;6.674;2023-08-31T11:30:15;97076.66;;;21.99;46.81
71917;BME280;59793;46.506;6.674;2023-08-31T11:32:48;97067.47;;;21.80;46.68
71917;BME280;59793;46.506;6.674;2023-08-31T11:35:15;97075.38;;;21.87;46.68
71917;BME280;59793;46.506;6.674;2023-08-31T11:37:43;97072.03;;;22.00;45.79
71917;BME280;59793;46.506;6.674;2023-08-31T11:40:09;97062.94;;;21.77;45.22
71917;BME280;59793;46.506;6.674;2023-08-31T11:42:34;97064.50;;;21.94;45.34
71917;BME280;59793;46.506;6.674;2023-08-31T11:45:00;97042.09;;;21.85;45.29
71917;BME280;59793;46.506;6.674;2023-08-31T11:47:26;97048.81;;;21.93;45.50
71917;BME280;59793;46.506;6.674;2023-08-31T11:49:52;97081.59;;;22.21;44.36
71917;BME280;59793;46.506;6.674;2023-08-31T11:52:18;97051.50;;;22.29;44.21
71917;BME280;59793;46.506;6.674;2023-08-31T11:54:44;97081.97;;;22.39;44.21
71917;BME280;59793;46.506;6.674;2023-08-31T11:57:11;97091.47;;;22.60;45.30
71917;BME280;59793;46.506;6.674;2023-08-31T11:59:37;97075.00;;;22.58;43.87
71917;BME280;59793;46.506;6.674;2023-08-31T12:02:09;97089.38;;;22.84;43.59
71917;BME280;59793;46.506;6.674;2023-08-31T12:04:44;97077.19;;;22.63;42.00
71917;BME280;59793;46.506;6.674;2023-08-31T12:07:11;97088.88;;;23.05;41.87
71917;BME280;59793;46.506;6.674;2023-08-31T12:09:37;97084.25;;;23.35;40.24
71917;BME280;59793;46.506;6.674;2023-08-31T12:12:02;97095.31;;;23.82;41.48
71917;BME280;59793;46.506;6.674;2023-08-31T12:14:30;97094.78;;;23.75;41.39
71917;BME280;59793;46.506;6.674;2023-08-31T12:17:05;97052.00;;;23.35;41.81
71917;BME280;59793;46.506;6.674;2023-08-31T12:19:31;97051.16;;;23.38;42.44
71917;BME280;59793;46.506;6.674;2023-08-31T12:21:58;97083.66;;;23.44;43.17
71917;BME280;59793;46.506;6.674;2023-08-31T12:24:23;97077.19;;;23.12;43.77
71917;BME280;59793;46.506;6.674;2023-08-31T12:26:50;97066.34;;;23.16;43.06
71917;BME280;59793;46.506;6.674;2023-08-31T12:29:19;97088.44;;;22.90;44.35
71917;BME280;59793;46.506;6.674;2023-08-31T12:31:46;97081.97;;;22.72;45.03
71917;BME280;59793;46.506;6.674;2023-08-31T12:34:11;97067.22;;;22.80;43.87
71917;BME280;59793;46.506;6.674;2023-08-31T12:36:37;97050.34;;;22.79;45.06
71917;BME280;59793;46.506;6.674;2023-08-31T12:39:03;97077.88;;;22.83;45.37
71917;BME280;59793;46.506;6.674;2023-08-31T12:41:31;97058.06;;;22.77;43.73
71917;BME280;59793;46.506;6.674;2023-08-31T12:43:57;97078.38;;;22.95;43.96
71917;BME280;59793;46.506;6.674;2023-08-31T12:46:23;97057.72;;;22.42;44.62
71917;BME280;59793;46.506;6.674;2023-08-31T12:48:48;97060.41;;;22.59;44.51
71917;BME280;59793;46.506;6.674;2023-08-31T12:51:16;97071.00;;;22.66;45.41
71917;BME280;59793;46.506;6.674;2023-08-31T12:53:42;97071.66;;;22.70;45.63
71917;BME280;59793;46.506;6.674;2023-08-31T12:56:08;97068.44;;;22.91;43.90
71917;BME280;59793;46.506;6.674;2023-08-31T12:58:33;97049.13;;;23.13;43.29
71917;BME280;59793;46.506;6.674;2023-08-31T13:00:58;97038.06;;;23.11;42.49